Time;durP1;ratioP1;P1;durP2;ratioP2;P2;SDS_P1;SDS_P2;PMS_P1;PMS_P2;Temp;Humidity;BMP_temperature;BMP_pressure;BME280_temperature;BME280_humidity;BME280_pressure;Samples;Min_cycle;Max_cycle;Signal;HPM_P1;HPM_P2
2023/11/22 18:00:21;;;;;;;;;1.00;1.00;;;;;;;;5106118;27;13403;-69
2023/11/22 18:02:47;;;;;;;;;2.00;0.75;;;;;;;;5107640;28;11495;-73
2023/11/22 18:05:12;;;;;;;;;0.00;0.00;;;;;;;;5100390;28;11529;-70
2023/11/22 18:07:38;;;;;;;;;0.75;0.75;;;;;;;;5106755;28;8812;-71
2023/11/22 18:10:05;;;;;;;;;0.00;0.00;;;;;;;;5109477;28;8881;-72
2023/11/22 18:12:30;;;;;;;;;2.00;0.00;;;;;;;;5106175;28;9574;-69
2023/11/22 18:14:55;;;;;;;;;0.00;0.00;;;;;;;;5107663;28;11049;-70
2023/11/22 18:17:21;;;;;;;;;1.00;1.00;;;;;;;;5120248;22;10954;-89
2023/11/22 18:19:46;;;;;;;;;5.00;5.00;;;;;;;;5019129;28;10843;-82
2023/11/22 18:22:13;;;;;;;;;17.00;13.00;;;;;;;;5025554;28;8806;-81
2023/11/22 18:24:38;;;;;;;;;6.00;5.00;;;;;;;;5027442;28;8818;-79
2023/11/22 18:27:03;;;;;;;;;27.75;20.75;;;;;;;;5026733;28;11172;-85
2023/11/22 18:29:29;;;;;;;;;22.75;21.50;;;;;;;;5023990;28;8877;-83
2023/11/22 18:31:58;;;;;;;;;9.50;9.50;;;;;;;;5028221;28;8821;-79
2023/11/22 18:34:30;;;;;;;;;5.00;3.00;;;;;;;;5027503;28;8925;-79
2023/11/22 18:36:55;;;;;;;;;13.00;9.75;;;;;;;;5027331;28;11212;-88
2023/11/22 18:39:21;;;;;;;;;1.00;1.00;;;;;;;;5027511;28;11420;-83
2023/11/22 18:41:47;;;;;;;;;2.00;0.25;;;;;;;;5029087;28;8798;-83
2023/11/22 18:44:12;;;;;;;;;0.25;0.25;;;;;;;;5026030;28;10773;-80
2023/11/22 18:46:37;;;;;;;;;0.00;0.00;;;;;;;;5033146;28;8824;-82
2023/11/22 18:49:03;;;;;;;;;1.00;1.00;;;;;;;;5047296;28;8854;-85
2023/11/22 18:51:28;;;;;;;;;0.00;0.00;;;;;;;;5047101;28;8908;-80
2023/11/22 18:53:53;;;;;;;;;0.00;0.00;;;;;;;;5023780;28;8818;-83
2023/11/22 18:56:18;;;;;;;;;0.00;0.00;;;;;;;;5026606;28;8834;-83
2023/11/22 18:58:44;;;;;;;;;1.25;0.00;;;;;;;;5026435;28;8862;-79
2023/11/22 19:01:10;;;;;;;;;1.00;1.00;;;;;;;;5028796;28;8806;-81
2023/11/22 19:03:36;;;;;;;;;4.00;1.00;;;;;;;;5026524;28;8921;-78
2023/11/22 19:06:01;;;;;;;;;0.00;0.00;;;;;;;;5025415;28;11067;-85
2023/11/22 19:08:26;;;;;;;;;0.50;0.50;;;;;;;;5026592;28;8860;-79
2023/11/22 19:10:51;;;;;;;;;1.75;1.75;;;;;;;;5016379;28;8821;-82
2023/11/22 19:13:18;;;;;;;;;0.50;0.50;;;;;;;;5014157;28;8957;-79
2023/11/22 19:15:45;;;;;;;;;1.00;1.00;;;;;;;;5015993;28;8812;-85
2023/11/22 19:18:11;;;;;;;;;1.00;1.00;;;;;;;;5033022;28;11565;-83
2023/11/22 19:20:37;;;;;;;;;1.00;1.00;;;;;;;;5033571;28;10898;-78
2023/11/22 19:23:04;;;;;;;;;1.50;0.00;;;;;;;;5020455;28;8925;-79
2023/11/22 19:25:32;;;;;;;;;1.25;1.25;;;;;;;;5013377;28;10574;-79
2023/11/22 19:27:57;;;;;;;;;1.00;1.00;;;;;;;;5012615;28;10774;-80
2023/11/22 19:30:22;;;;;;;;;1.00;1.00;;;;;;;;5011687;28;11127;-79
2023/11/22 19:32:47;;;;;;;;;1.00;1.00;;;;;;;;5012605;28;8826;-76
2023/11/22 19:35:13;;;;;;;;;21.75;16.00;;;;;;;;5011113;28;8847;-76
2023/11/22 19:37:38;;;;;;;;;8.25;4.00;;;;;;;;5013552;28;8802;-77
2023/11/22 19:40:04;;;;;;;;;11.75;10.00;;;;;;;;5011221;28;8853;-77
2023/11/22 19:42:29;;;;;;;;;12.50;9.75;;;;;;;;5012319;28;9540;-76
2023/11/22 19:44:56;;;;;;;;;2.00;2.00;;;;;;;;5014161;28;11496;-77
2023/11/22 19:47:22;;;;;;;;;0.00;0.00;;;;;;;;5028881;28;8807;-76
2023/11/22 19:49:47;;;;;;;;;4.75;3.50;;;;;;;;5032821;28;10647;-77
2023/11/22 19:52:13;;;;;;;;;1.00;1.00;;;;;;;;5032906;28;8881;-75
2023/11/22 19:54:39;;;;;;;;;1.50;1.50;;;;;;;;5032775;28;8800;-75
2023/11/22 19:57:04;;;;;;;;;3.00;1.50;;;;;;;;5017240;28;10952;-77
2023/11/22 19:59:29;;;;;;;;;1.25;1.25;;;;;;;;5010923;28;8803;-77
2023/11/22 20:01:55;;;;;;;;;3.50;2.00;;;;;;;;5012098;28;8791;-77
2023/11/22 20:04:20;;;;;;;;;1.00;1.00;;;;;;;;5011769;28;8888;-75
2023/11/22 20:06:48;;;;;;;;;1.00;1.00;;;;;;;;5011667;28;8795;-79
2023/11/22 20:09:13;;;;;;;;;18.75;13.50;;;;;;;;5011761;28;8830;-77
2023/11/22 20:11:39;;;;;;;;;1.75;1.00;;;;;;;;5011952;28;11552;-80
2023/11/22 20:14:04;;;;;;;;;1.25;1.25;;;;;;;;5012722;28;8795;-78
2023/11/22 20:16:30;;;;;;;;;1.00;1.00;;;;;;;;5017174;28;8812;-78
2023/11/22 20:18:58;;;;;;;;;4.50;4.50;;;;;;;;5051233;23;9016;-72
2023/11/22 20:21:23;;;;;;;;;3.25;2.00;;;;;;;;5031160;28;12071;-70
2023/11/22 20:23:51;;;;;;;;;1.00;1.00;;;;;;;;5069831;28;11592;-71
2023/11/22 20:26:17;;;;;;;;;2.00;2.00;;;;;;;;5070395;28;8782;-71
2023/11/22 20:28:42;;;;;;;;;1.00;1.00;;;;;;;;5055350;28;10836;-69
2023/11/22 20:31:12;;;;;;;;;2.00;1.00;;;;;;;;5053440;28;9542;-69
2023/11/22 20:33:37;;;;;;;;;1.00;1.00;;;;;;;;5052050;28;9024;-70
2023/11/22 20:36:04;;;;;;;;;0.00;0.00;;;;;;;;5070990;28;10615;-70
2023/11/22 20:38:30;;;;;;;;;1.25;1.00;;;;;;;;5053075;28;8877;-71
2023/11/22 20:40:55;;;;;;;;;1.00;1.00;;;;;;;;5070820;28;10538;-70
2023/11/22 20:43:20;;;;;;;;;1.00;1.00;;;;;;;;5082910;28;8798;-70
2023/11/22 20:45:46;;;;;;;;;1.00;1.00;;;;;;;;5090993;28;8816;-72
2023/11/22 20:48:12;;;;;;;;;1.00;0.75;;;;;;;;5093352;28;8833;-71
2023/11/22 20:50:37;;;;;;;;;1.00;1.00;;;;;;;;5091006;28;8878;-71
2023/11/22 20:53:03;;;;;;;;;2.00;1.00;;;;;;;;5091135;28;9520;-70
2023/11/22 20:55:28;;;;;;;;;3.25;2.00;;;;;;;;5090947;28;8774;-71
2023/11/22 20:57:53;;;;;;;;;0.75;0.50;;;;;;;;5090842;28;8805;-70
2023/11/22 21:00:19;;;;;;;;;1.00;1.00;;;;;;;;5090703;28;8847;-69
2023/11/22 21:02:45;;;;;;;;;1.00;1.00;;;;;;;;5074248;28;8833;-70
2023/11/22 21:05:11;;;;;;;;;1.00;1.00;;;;;;;;5090733;28;8802;-70
2023/11/22 21:07:37;;;;;;;;;0.50;0.50;;;;;;;;5090956;28;8909;-70
2023/11/22 21:10:03;;;;;;;;;1.00;1.00;;;;;;;;5090880;28;11445;-70
2023/11/22 21:12:28;;;;;;;;;2.00;1.00;;;;;;;;5072021;28;10633;-70
2023/11/22 21:14:53;;;;;;;;;2.00;1.00;;;;;;;;5090548;28;8806;-70
2023/11/22 21:17:19;;;;;;;;;1.00;1.00;;;;;;;;5090274;28;8789;-70
2023/11/22 21:19:47;;;;;;;;;1.00;1.00;;;;;;;;5092203;28;8860;-71
2023/11/22 21:22:12;;;;;;;;;2.75;1.00;;;;;;;;5090826;28;8790;-70
2023/11/22 21:24:38;;;;;;;;;2.00;1.25;;;;;;;;5090474;28;11499;-72
2023/11/22 21:27:06;;;;;;;;;2.00;1.00;;;;;;;;5072155;28;8933;-70
2023/11/22 21:29:31;;;;;;;;;1.00;1.00;;;;;;;;5070698;28;11471;-69
2023/11/22 21:31:57;;;;;;;;;1.00;1.00;;;;;;;;5089721;28;10910;-70
2023/11/22 21:34:22;;;;;;;;;1.00;1.00;;;;;;;;5072155;28;8798;-69
2023/11/22 21:36:47;;;;;;;;;1.00;1.00;;;;;;;;5090474;28;8774;-68
2023/11/22 21:39:13;;;;;;;;;1.50;1.00;;;;;;;;5090410;28;8790;-69
2023/11/22 21:41:44;;;;;;;;;1.25;0.00;;;;;;;;5089933;28;8813;-73
2023/11/22 21:44:10;;;;;;;;;1.00;1.00;;;;;;;;5082910;28;8815;-71
2023/11/22 21:46:35;;;;;;;;;0.00;0.00;;;;;;;;5069514;28;10690;-70
2023/11/22 21:49:00;;;;;;;;;1.00;1.00;;;;;;;;5069725;28;8823;-70
2023/11/22 21:51:33;;;;;;;;;0.00;0.00;;;;;;;;5068821;28;8788;-70
2023/11/22 21:53:58;;;;;;;;;0.25;0.25;;;;;;;;5069154;28;9044;-70
2023/11/22 21:56:26;;;;;;;;;1.75;1.75;;;;;;;;5069203;28;11021;-71
2023/11/22 21:58:51;;;;;;;;;1.00;1.00;;;;;;;;5069729;28;8799;-70
2023/11/22 22:01:16;;;;;;;;;1.00;1.00;;;;;;;;5070089;28;10853;-70
2023/11/22 22:03:42;;;;;;;;;2.50;0.25;;;;;;;;5070013;28;8830;-70
2023/11/22 22:06:08;;;;;;;;;1.00;1.00;;;;;;;;5069902;28;9056;-70
2023/11/22 22:08:36;;;;;;;;;0.00;0.00;;;;;;;;5069923;28;9517;-71
2023/11/22 22:11:02;;;;;;;;;1.00;1.00;;;;;;;;5052181;28;8806;-70
2023/11/22 22:13:27;;;;;;;;;1.00;1.00;;;;;;;;5083458;28;10814;-70
2023/11/22 22:15:56;;;;;;;;;0.50;0.50;;;;;;;;5082012;28;8797;-70
2023/11/22 22:18:21;;;;;;;;;1.00;1.00;;;;;;;;5069329;28;8848;-70
2023/11/22 22:20:46;;;;;;;;;0.00;0.00;;;;;;;;5068369;28;10849;-70
2023/11/22 22:23:16;;;;;;;;;1.75;1.00;;;;;;;;5057185;28;8837;-70
2023/11/22 22:25:41;;;;;;;;;0.25;0.00;;;;;;;;5067210;28;8803;-70
2023/11/22 22:28:07;;;;;;;;;2.00;1.00;;;;;;;;5068596;28;10752;-69
2023/11/22 22:30:34;;;;;;;;;2.00;0.00;;;;;;;;5069857;28;8812;-71
2023/11/22 22:32:59;;;;;;;;;1.00;1.00;;;;;;;;5069100;28;11102;-71
2023/11/22 22:35:25;;;;;;;;;3.00;3.00;;;;;;;;5069422;28;11052;-72
2023/11/22 22:37:53;;;;;;;;;2.50;2.00;;;;;;;;5051500;28;8808;-72
2023/11/22 22:40:19;;;;;;;;;3.50;2.75;;;;;;;;5069568;28;8891;-74
2023/11/22 22:42:44;;;;;;;;;1.50;1.50;;;;;;;;5076775;28;10902;-72
2023/11/22 22:45:12;;;;;;;;;1.25;1.25;;;;;;;;5090515;28;8899;-74
2023/11/22 22:47:39;;;;;;;;;4.00;4.00;;;;;;;;5093725;28;8778;-71
2023/11/22 22:50:05;;;;;;;;;3.00;2.00;;;;;;;;5093429;28;11019;-72
2023/11/22 22:52:31;;;;;;;;;2.25;2.25;;;;;;;;5093358;28;10938;-72
2023/11/22 22:54:56;;;;;;;;;2.00;2.00;;;;;;;;5093339;28;9684;-73
2023/11/22 22:57:24;;;;;;;;;3.00;3.00;;;;;;;;5093178;28;8920;-74
2023/11/22 22:59:50;;;;;;;;;2.00;2.00;;;;;;;;5093072;28;8940;-72
2023/11/22 23:02:16;;;;;;;;;2.00;2.00;;;;;;;;5093258;28;10835;-73
2023/11/22 23:04:43;;;;;;;;;2.00;2.00;;;;;;;;5093207;28;8793;-73
2023/11/22 23:07:08;;;;;;;;;2.00;2.00;;;;;;;;5093109;28;10866;-74
2023/11/22 23:09:34;;;;;;;;;2.00;2.00;;;;;;;;5092884;28;10767;-74
2023/11/22 23:12:02;;;;;;;;;3.00;2.00;;;;;;;;5092968;28;8810;-75
2023/11/22 23:14:28;;;;;;;;;0.25;0.00;;;;;;;;5092965;28;8820;-75
2023/11/22 23:17:01;;;;;;;;;3.50;2.00;;;;;;;;5092941;28;10665;-75
2023/11/22 23:19:26;;;;;;;;;2.00;2.00;;;;;;;;5092836;28;8802;-74
2023/11/22 23:21:53;;;;;;;;;1.25;1.25;;;;;;;;5092811;28;10932;-72
2023/11/22 23:24:19;;;;;;;;;2.75;2.75;;;;;;;;5092631;28;9596;-72
2023/11/22 23:26:44;;;;;;;;;2.00;2.00;;;;;;;;5092826;28;11119;-73
2023/11/22 23:29:10;;;;;;;;;1.75;1.00;;;;;;;;5092414;28;8889;-72
2023/11/22 23:31:40;;;;;;;;;4.00;2.00;;;;;;;;5074550;28;8782;-72
2023/11/22 23:34:06;;;;;;;;;4.00;2.00;;;;;;;;5092556;28;11010;-71
2023/11/22 23:36:32;;;;;;;;;1.00;1.00;;;;;;;;5092353;28;10995;-70
2023/11/22 23:38:57;;;;;;;;;2.00;2.00;;;;;;;;5092542;28;11885;-69
2023/11/22 23:41:24;;;;;;;;;1.50;1.50;;;;;;;;5092626;28;8805;-69
2023/11/22 23:43:49;;;;;;;;;2.50;2.50;;;;;;;;5074517;28;8812;-69
2023/11/22 23:46:15;;;;;;;;;2.00;2.00;;;;;;;;5092586;28;11082;-70
2023/11/22 23:48:42;;;;;;;;;2.00;1.50;;;;;;;;5073525;28;9528;-71
